Time;durP1;ratioP1;P1;durP2;ratioP2;P2;SDS_P1;SDS_P2;PMS_P1;PMS_P2;Temp;Humidity;BMP_temperature;BMP_pressure;BME280_temperature;BME280_humidity;BME280_pressure;Samples;Min_cycle;Max_cycle;Signal;HPM_P1;HPM_P2
2023/01/19 00:00:49;;;;;;;8.65;3.92;;;-0.80;99.90;;;;;;5011523;28;20049;-65
2023/01/19 00:03:17;;;;;;;9.10;3.95;;;-0.80;99.90;;;;;;4992827;28;20047;-65
2023/01/19 00:05:45;;;;;;;9.52;4.15;;;-0.90;99.90;;;;;;4993075;28;20057;-66
2023/01/19 00:08:16;;;;;;;11.73;4.82;;;-0.90;99.90;;;;;;5006715;28;20053;-65
2023/01/19 00:10:46;;;;;;;8.13;3.80;;;-0.90;99.90;;;;;;5043338;28;20235;-64
2023/01/19 00:13:14;;;;;;;10.73;4.40;;;-0.90;99.90;;;;;;5003082;28;20069;-60
2023/01/19 00:15:42;;;;;;;14.30;5.10;;;-0.90;99.90;;;;;;4991432;28;20039;-63
2023/01/19 00:18:10;;;;;;;14.18;5.13;;;-1.00;99.90;;;;;;5005247;28;20058;-60
2023/01/19 00:20:39;;;;;;;11.65;5.55;;;-1.00;99.90;;;;;;5005621;28;20050;-61
2023/01/19 00:23:07;;;;;;;13.50;6.03;;;-0.90;99.90;;;;;;5000670;28;20374;-64
2023/01/19 00:25:41;;;;;;;19.08;7.32;;;-0.90;99.90;;;;;;5003673;28;20054;-63
2023/01/19 00:28:11;;;;;;;15.48;4.35;;;-1.00;99.90;;;;;;4979119;28;20474;-65
2023/01/19 00:30:40;;;;;;;19.95;5.05;;;-0.90;99.90;;;;;;4994011;28;20050;-64
2023/01/19 00:33:09;;;;;;;14.63;4.72;;;-0.80;99.90;;;;;;5001300;28;20048;-61
2023/01/19 00:35:37;;;;;;;13.77;4.23;;;-1.70;99.90;;;;;;5007407;28;20410;-60
2023/01/19 00:38:11;;;;;;;11.68;4.05;;;-0.70;99.90;;;;;;5008912;28;20299;-61
2023/01/19 00:40:39;;;;;;;17.05;5.75;;;-0.80;99.90;;;;;;4989966;28;20617;-60
2023/01/19 00:43:07;;;;;;;15.48;4.28;;;-0.70;99.90;;;;;;4985567;28;20053;-60
2023/01/19 00:45:34;;;;;;;12.13;3.88;;;-0.70;99.90;;;;;;4993189;28;20043;-60
2023/01/19 00:48:02;;;;;;;14.57;3.60;;;-0.70;99.90;;;;;;4991425;28;20062;-60
2023/01/19 00:50:31;;;;;;;13.18;4.18;;;-0.70;99.90;;;;;;4991981;28;20050;-59
2023/01/19 00:53:00;;;;;;;8.85;3.45;;;-0.80;99.90;;;;;;4992612;28;20050;-59
2023/01/19 00:55:31;;;;;;;6.15;2.72;;;-0.70;99.90;;;;;;4992853;28;20377;-60
2023/01/19 00:57:58;;;;;;;17.52;3.50;;;-0.70;99.90;;;;;;5013972;28;20457;-60
2023/01/19 01:00:26;;;;;;;13.02;3.08;;;-0.70;99.90;;;;;;4996884;28;20516;-59
2023/01/19 01:02:54;;;;;;;7.30;3.63;;;-0.70;99.90;;;;;;4992337;28;20046;-59
2023/01/19 01:05:22;;;;;;;7.97;3.03;;;-0.60;99.90;;;;;;4994136;28;20050;-59
2023/01/19 01:07:50;;;;;;;13.55;3.78;;;-0.50;99.90;;;;;;5008340;28;20050;-61
2023/01/19 01:10:23;;;;;;;9.00;2.78;;;-0.50;99.90;;;;;;5007728;28;20054;-59
2023/01/19 01:12:51;;;;;;;8.88;2.50;;;-0.40;99.90;;;;;;5001525;28;20065;-60
2023/01/19 01:15:26;;;;;;;6.95;1.90;;;-0.40;99.90;;;;;;4988423;28;20049;-60
2023/01/19 01:17:57;;;;;;;6.18;2.20;;;-0.40;99.90;;;;;;4991647;28;20497;-59
2023/01/19 01:20:27;;;;;;;6.95;3.42;;;-0.40;99.90;;;;;;4996727;28;20414;-60
2023/01/19 01:22:56;;;;;;;7.53;2.63;;;-0.40;99.90;;;;;;4997203;28;20038;-62
2023/01/19 01:25:27;;;;;;;12.20;3.17;;;-0.40;99.90;;;;;;5005246;28;20052;-59
2023/01/19 01:27:55;;;;;;;7.88;2.92;;;;;;;;;;5007148;28;20683;-59
2023/01/19 01:30:23;;;;;;;8.82;3.38;;;-0.40;99.90;;;;;;5002396;28;20497;-59
2023/01/19 01:32:51;;;;;;;9.68;3.90;;;-0.40;99.90;;;;;;5005892;28;20518;-61
2023/01/19 01:35:18;;;;;;;6.32;3.38;;;-0.40;99.90;;;;;;5001727;28;20046;-61
2023/01/19 01:37:46;;;;;;;5.68;3.00;;;-0.50;99.90;;;;;;4997788;28;20603;-60
2023/01/19 01:40:17;;;;;;;9.05;3.80;;;-0.50;99.90;;;;;;4993111;28;20058;-63
2023/01/19 01:42:45;;;;;;;8.23;4.20;;;-0.60;99.90;;;;;;5003046;28;20042;-61
2023/01/19 01:45:39;;;;;;;11.07;5.05;;;-0.50;99.90;;;;;;4991915;28;20041;-59
2023/01/19 01:48:27;;;;;;;13.98;4.88;;;-0.60;99.90;;;;;;5005582;28;20046;-60
2023/01/19 01:54:13;;;;;;;8.32;4.13;;;-0.60;99.90;;;;;;4996951;28;20045;-59
2023/01/19 01:56:44;;;;;;;8.00;3.47;;;-0.60;99.90;;;;;;4994915;28;20050;-59
2023/01/19 01:59:33;;;;;;;11.27;3.70;;;-0.70;99.90;;;;;;4993671;28;20426;-59
2023/01/19 02:04:54;;;;;;;6.97;1.55;;;-0.70;99.90;;;;;;4992182;28;19922;-61
2023/01/19 02:13:17;;;;;;;5.40;1.58;;;-0.70;99.90;;;;;;4990621;28;20524;-61
2023/01/19 02:15:46;;;;;;;5.20;1.85;;;-0.60;99.90;;;;;;4991073;28;20049;-59
2023/01/19 02:18:14;;;;;;;5.32;2.17;;;-0.60;99.90;;;;;;4990019;28;20058;-59
2023/01/19 02:20:53;;;;;;;4.90;2.42;;;-0.60;99.90;;;;;;4989316;28;20050;-61
2023/01/19 02:23:38;;;;;;;5.15;1.35;;;-0.60;99.90;;;;;;4980674;28;20050;-64
2023/01/19 02:26:08;;;;;;;3.20;1.15;;;-0.60;99.90;;;;;;4990161;28;20050;-62
2023/01/19 02:28:40;;;;;;;5.35;1.75;;;-0.60;99.90;;;;;;4994889;28;20054;-62
2023/01/19 02:31:08;;;;;;;5.13;1.98;;;-0.50;99.90;;;;;;4989075;28;20050;-60
2023/01/19 02:33:36;;;;;;;3.47;1.05;;;-0.50;99.90;;;;;;4997973;28;20054;-67
2023/01/19 02:36:06;;;;;;;3.08;0.95;;;-0.60;99.90;;;;;;5002110;28;20053;-63
2023/01/19 02:38:37;;;;;;;2.60;1.40;;;-0.50;99.90;;;;;;5010058;28;20041;-65
2023/01/19 02:41:07;;;;;;;6.82;1.20;;;-0.50;99.90;;;;;;5003845;28;20054;-60
2023/01/19 02:43:35;;;;;;;8.88;1.27;;;-0.50;99.90;;;;;;4990469;28;20042;-60
2023/01/19 02:46:03;;;;;;;3.17;1.20;;;-0.50;99.90;;;;;;4992808;28;20621;-64
2023/01/19 02:48:31;;;;;;;13.48;2.05;;;-0.60;99.90;;;;;;4988797;28;20042;-65
2023/01/19 02:51:03;;;;;;;5.93;1.10;;;-0.50;99.90;;;;;;4982059;28;20054;-66
2023/01/19 02:53:58;;;;;;;7.43;1.63;;;-0.50;99.90;;;;;;4994530;28;20402;-64
2023/01/19 02:56:49;;;;;;;4.60;1.80;;;-0.40;99.90;;;;;;4991330;28;20077;-66
2023/01/19 02:59:48;;;;;;;7.30;1.80;;;-0.40;99.90;;;;;;5001659;28;20058;-65
2023/01/19 03:02:26;;;;;;;12.38;1.77;;;-0.30;99.90;;;;;;4972054;28;20062;-66
2023/01/19 03:05:26;;;;;;;5.97;2.00;;;-0.30;99.90;;;;;;4986634;28;20050;-65
2023/01/19 03:08:03;;;;;;;;;;;-0.30;99.90;;;;;;4999869;28;20046;-67
2023/01/19 03:10:40;;;;;;;5.53;1.90;;;-0.30;99.90;;;;;;5012203;28;19926;-64
2023/01/19 03:13:17;;;;;;;4.75;1.70;;;-0.30;99.90;;;;;;5000493;28;20046;-67
2023/01/19 03:16:04;;;;;;;8.38;1.75;;;-0.20;99.90;;;;;;4990445;28;20061;-60
2023/01/19 03:18:34;;;;;;;3.42;1.38;;;-0.20;99.90;;;;;;4992197;28;20053;-61
2023/01/19 03:21:05;;;;;;;7.03;2.70;;;-0.20;99.90;;;;;;4991808;28;20046;-62
2023/01/19 03:23:36;;;;;;;3.33;1.42;;;-0.20;99.90;;;;;;4990858;28;20043;-59
2023/01/19 03:26:07;;;;;;;2.40;1.38;;;-0.20;99.90;;;;;;4990959;28;20046;-60
2023/01/19 03:28:38;;;;;;;3.88;1.45;;;-0.20;99.90;;;;;;4991929;28;20073;-61
2023/01/19 03:31:12;;;;;;;5.80;1.42;;;-0.20;99.90;;;;;;4992229;28;20050;-59
2023/01/19 03:33:45;;;;;;;2.80;1.50;;;-0.10;99.90;;;;;;4991886;28;20402;-60
2023/01/19 03:36:19;;;;;;;8.75;1.50;;;-0.10;99.90;;;;;;4991759;28;20049;-60
2023/01/19 03:38:48;;;;;;;5.85;1.85;;;-0.10;99.90;;;;;;4993105;28;20058;-64
2023/01/19 03:41:20;;;;;;;3.53;1.40;;;-0.10;99.90;;;;;;4991874;28;20046;-65
2023/01/19 03:43:50;;;;;;;4.10;1.23;;;-0.10;99.90;;;;;;4991757;28;20065;-60
2023/01/19 03:46:19;;;;;;;10.82;1.80;;;-0.10;99.90;;;;;;4991819;28;20038;-59
2023/01/19 03:48:47;;;;;;;3.88;1.15;;;-0.10;99.90;;;;;;4992095;28;20065;-61
2023/01/19 03:51:15;;;;;;;3.72;1.55;;;0.00;99.90;;;;;;4991751;28;20051;-59
2023/01/19 03:53:43;;;;;;;4.55;1.80;;;0.00;99.90;;;;;;4991791;28;20046;-59
2023/01/19 03:56:20;;;;;;;4.00;1.70;;;0.00;99.90;;;;;;4990446;28;20047;-59
2023/01/19 03:58:48;;;;;;;6.28;1.38;;;0.10;99.90;;;;;;4991554;28;20042;-60
2023/01/19 04:01:19;;;;;;;6.03;1.35;;;0.20;99.90;;;;;;4991682;28;20054;-63
2023/01/19 04:03:50;;;;;;;8.35;2.42;;;0.20;99.90;;;;;;4991722;28;20057;-64
2023/01/19 04:06:19;;;;;;;4.20;1.17;;;0.20;99.90;;;;;;4991604;28;20050;-62
2023/01/19 04:08:48;;;;;;;8.77;1.40;;;0.30;99.90;;;;;;5005762;28;20374;-63
2023/01/19 04:11:16;;;;;;;4.70;1.25;;;0.30;99.90;;;;;;5001066;28;20046;-64
2023/01/19 04:13:44;;;;;;;5.10;1.58;;;0.30;99.90;;;;;;4991343;28;20066;-60
2023/01/19 04:16:12;;;;;;;9.20;1.52;;;0.40;99.90;;;;;;4991907;28;20042;-60
2023/01/19 04:18:41;;;;;;;9.95;1.33;;;0.40;99.90;;;;;;4991522;28;20061;-60
2023/01/19 04:21:08;;;;;;;1.42;1.33;;;0.40;99.90;;;;;;4991180;28;20046;-60
2023/01/19 04:23:36;;;;;;;3.08;1.60;;;0.40;99.90;;;;;;4991571;28;20050;-63
2023/01/19 04:26:05;;;;;;;1.58;0.63;;;0.50;99.90;;;;;;4991694;28;20043;-60
2023/01/19 04:28:35;;;;;;;13.73;0.93;;;0.60;99.90;;;;;;4991447;28;20047;-60
2023/01/19 04:31:04;;;;;;;0.40;0.22;;;0.60;99.90;;;;;;4991293;28;20057;-61
2023/01/19 04:33:33;;;;;;;3.55;0.70;;;0.60;99.90;;;;;;4992242;28;20053;-60
2023/01/19 04:36:02;;;;;;;5.03;0.63;;;0.50;99.90;;;;;;4995087;28;20047;-65
2023/01/19 04:38:30;;;;;;;1.20;0.40;;;0.50;99.90;;;;;;5006889;28;20071;-63
2023/01/19 04:40:58;;;;;;;2.17;0.77;;;0.50;99.90;;;;;;5007149;28;20057;-67
2023/01/19 04:43:25;;;;;;;2.63;0.60;;;0.50;99.90;;;;;;4994735;28;20054;-60
2023/01/19 04:45:53;;;;;;;6.43;0.60;;;0.50;99.90;;;;;;4992046;28;20062;-67
2023/01/19 04:48:21;;;;;;;3.03;1.52;;;0.50;99.90;;;;;;4994122;28;20058;-66
2023/01/19 04:50:51;;;;;;;5.30;0.90;;;0.40;99.90;;;;;;4993631;28;20046;-63
2023/01/19 04:53:18;;;;;;;1.92;0.65;;;0.40;99.90;;;;;;4994881;28;20046;-64
2023/01/19 04:55:46;;;;;;;7.60;1.50;;;0.50;99.90;;;;;;4993969;28;20061;-65
2023/01/19 04:58:14;;;;;;;4.80;0.80;;;0.40;99.90;;;;;;4994538;28;20047;-65
2023/01/19 05:00:42;;;;;;;3.90;1.13;;;0.40;99.90;;;;;;4993322;28;20398;-63
2023/01/19 05:03:10;;;;;;;7.63;1.20;;;0.40;99.90;;;;;;4994565;28;20520;-67
2023/01/19 05:05:38;;;;;;;2.05;1.80;;;0.40;99.90;;;;;;4993354;28;20437;-60
2023/01/19 05:08:05;;;;;;;2.33;1.15;;;0.30;99.90;;;;;;4993401;28;20046;-67
2023/01/19 05:10:33;;;;;;;8.68;1.45;;;0.40;99.90;;;;;;4993043;28;20556;-61
2023/01/19 05:13:01;;;;;;;7.65;1.17;;;0.40;99.90;;;;;;4993779;28;20062;-65
2023/01/19 05:15:29;;;;;;;3.35;1.35;;;0.40;99.90;;;;;;4992768;28;20652;-66
2023/01/19 05:17:57;;;;;;;13.43;1.40;;;0.40;99.90;;;;;;4993817;28;20513;-66
2023/01/19 05:20:25;;;;;;;3.20;1.42;;;0.40;99.90;;;;;;4994255;28;20057;-67
2023/01/19 05:22:52;;;;;;;5.47;1.98;;;0.40;99.90;;;;;;4992864;28;20054;-68
2023/01/19 05:25:20;;;;;;;5.95;1.40;;;0.40;99.90;;;;;;4991763;28;20042;-67
2023/01/19 05:27:47;;;;;;;2.65;1.17;;;0.40;99.90;;;;;;4994332;28;20047;-64
2023/01/19 05:30:15;;;;;;;5.43;1.38;;;0.40;99.90;;;;;;4993052;28;20058;-67
2023/01/19 05:32:43;;;;;;;5.75;1.70;;;0.30;99.90;;;;;;4994054;28;20058;-67
2023/01/19 05:35:14;;;;;;;10.27;1.55;;;0.30;99.90;;;;;;4994158;28;20053;-66
2023/01/19 05:37:43;;;;;;;8.18;1.13;;;0.20;99.90;;;;;;4999053;28;20612;-65
2023/01/19 05:40:11;;;;;;;7.90;1.90;;;0.20;99.90;;;;;;5012402;28;20080;-66
2023/01/19 05:42:38;;;;;;;4.15;1.13;;;0.20;99.90;;;;;;4992882;28;20069;-67
2023/01/19 05:45:07;;;;;;;4.20;1.17;;;0.20;99.90;;;;;;4993348;28;20054;-62
2023/01/19 05:47:34;;;;;;;6.53;1.25;;;0.30;99.90;;;;;;4988914;28;20046;-62
2023/01/19 05:50:03;;;;;;;2.90;1.38;;;0.30;99.90;;;;;;4990121;28;20050;-63
2023/01/19 05:52:30;;;;;;;9.88;1.73;;;0.30;99.90;;;;;;4988618;28;20061;-64
2023/01/19 05:54:58;;;;;;;5.75;1.63;;;0.40;99.90;;;;;;4990261;28;20051;-61
2023/01/19 05:57:26;;;;;;;3.28;1.42;;;0.40;99.90;;;;;;4994080;28;20608;-65
2023/01/19 05:59:53;;;;;;;3.85;1.55;;;0.40;99.90;;;;;;4998276;28;20058;-60
2023/01/19 06:02:27;;;;;;;9.43;1.60;;;0.40;99.90;;;;;;4987471;28;20046;-60
2023/01/19 06:04:56;;;;;;;6.05;1.70;;;0.30;99.90;;;;;;4988013;28;20057;-64
2023/01/19 06:07:23;;;;;;;4.85;1.90;;;0.30;99.90;;;;;;4987651;28;20047;-59
2023/01/19 06:09:53;;;;;;;9.60;1.50;;;0.30;99.90;;;;;;4991902;28;20061;-59
2023/01/19 06:12:20;;;;;;;6.25;1.55;;;0.30;99.90;;;;;;4987627;28;20062;-59
2023/01/19 06:14:48;;;;;;;9.27;2.15;;;0.30;99.90;;;;;;4988040;28;20054;-64
2023/01/19 06:17:16;;;;;;;6.22;1.50;;;0.30;99.90;;;;;;4986173;28;20407;-64
2023/01/19 06:19:43;;;;;;;5.60;1.77;;;0.30;99.90;;;;;;4988261;28;20058;-63
2023/01/19 06:22:11;;;;;;;5.45;1.42;;;0.30;99.90;;;;;;4989318;28;20391;-63
2023/01/19 06:24:39;;;;;;;6.43;1.48;;;0.30;99.90;;;;;;4989895;28;20047;-60
2023/01/19 06:27:06;;;;;;;12.02;1.60;;;0.30;99.90;;;;;;4987328;28;20050;-60
2023/01/19 06:29:34;;;;;;;4.00;0.80;;;0.30;99.90;;;;;;4988427;28;20066;-62
2023/01/19 06:32:02;;;;;;;13.18;1.80;;;0.30;99.90;;;;;;4977696;28;20054;-64
2023/01/19 06:34:29;;;;;;;13.13;1.60;;;0.30;99.90;;;;;;4989682;28;20061;-65
2023/01/19 06:36:57;;;;;;;11.50;2.25;;;0.30;99.90;;;;;;4988952;28;20122;-67
2023/01/19 06:39:26;;;;;;;6.43;1.42;;;0.30;99.90;;;;;;5007045;28;20041;-61
2023/01/19 06:41:53;;;;;;;8.17;1.40;;;0.30;99.90;;;;;;4984410;28;20046;-66
2023/01/19 06:44:21;;;;;;;4.93;0.95;;;0.30;99.90;;;;;;4986459;28;20042;-66
2023/01/19 06:46:49;;;;;;;10.30;1.27;;;0.40;99.90;;;;;;4987552;28;20053;-65
2023/01/19 06:49:16;;;;;;;3.80;0.88;;;0.90;99.90;;;;;;4990970;28;20487;-61
2023/01/19 06:51:44;;;;;;;4.32;1.67;;;0.50;99.90;;;;;;4988516;28;20046;-65
2023/01/19 06:54:12;;;;;;;5.35;1.95;;;0.60;99.90;;;;;;5004098;28;20049;-65
2023/01/19 06:56:39;;;;;;;5.03;1.40;;;0.50;99.90;;;;;;5010446;28;20058;-64
2023/01/19 06:59:08;;;;;;;5.00;1.70;;;0.60;99.90;;;;;;4991642;28;20042;-66
2023/01/19 07:01:36;;;;;;;7.60;1.73;;;0.50;99.90;;;;;;4984503;28;20077;-63
2023/01/19 07:04:04;;;;;;;7.20;2.88;;;0.50;99.90;;;;;;4993296;28;20077;-63
2023/01/19 07:06:31;;;;;;;14.15;1.90;;;0.50;99.90;;;;;;4988465;28;20068;-59
2023/01/19 07:08:59;;;;;;;9.30;2.15;;;0.50;99.90;;;;;;5005887;28;20046;-60
2023/01/19 07:11:26;;;;;;;8.85;1.83;;;0.50;99.90;;;;;;5010252;28;20052;-60
2023/01/19 07:13:59;;;;;;;3.67;1.60;;;0.50;99.90;;;;;;4988454;28;20054;-61
2023/01/19 07:16:26;;;;;;;5.20;2.08;;;0.50;99.90;;;;;;4985815;28;20043;-60
2023/01/19 07:18:54;;;;;;;8.05;2.88;;;0.40;99.90;;;;;;4986433;28;20057;-65
2023/01/19 07:21:22;;;;;;;5.40;1.88;;;0.40;99.90;;;;;;4989584;28;20054;-66
2023/01/19 07:23:51;;;;;;;5.22;2.97;;;0.40;99.90;;;;;;4983647;28;20058;-64
2023/01/19 07:26:20;;;;;;;6.95;2.78;;;0.40;99.90;;;;;;4985879;28;20089;-62
2023/01/19 07:28:48;;;;;;;9.75;3.65;;;0.40;99.90;;;;;;4978830;28;20055;-63
2023/01/19 07:31:16;;;;;;;9.07;3.22;;;0.50;99.90;;;;;;4987492;28;20518;-65
2023/01/19 07:33:45;;;;;;;7.28;2.47;;;0.40;99.90;;;;;;4979617;28;20049;-67
2023/01/19 07:36:13;;;;;;;8.93;3.25;;;0.40;99.90;;;;;;4978253;28;20064;-64
2023/01/19 07:38:41;;;;;;;8.18;2.33;;;0.50;99.90;;;;;;4980970;28;20387;-61
2023/01/19 07:41:09;;;;;;;11.40;3.13;;;0.50;99.90;;;;;;4971004;28;20051;-65
2023/01/19 07:43:37;;;;;;;8.67;3.43;;;0.50;99.90;;;;;;4987519;28;20042;-66
2023/01/19 07:46:06;;;;;;;3.45;1.42;;;0.50;99.90;;;;;;4988264;28;20760;-65
2023/01/19 07:48:34;;;;;;;;;;;0.50;99.90;;;;;;4981696;28;20046;-66
2023/01/19 07:51:04;;;;;;;5.35;1.92;;;0.50;99.90;;;;;;4987302;28;19956;-68
2023/01/19 07:53:32;;;;;;;9.32;1.60;;;0.50;99.90;;;;;;4989494;28;20054;-65
2023/01/19 07:56:00;;;;;;;3.15;1.08;;;0.50;99.90;;;;;;4990083;28;20526;-68
2023/01/19 07:58:28;;;;;;;10.23;1.20;;;0.50;99.90;;;;;;4989885;28;20050;-66
2023/01/19 08:00:55;;;;;;;6.47;1.13;;;0.50;99.90;;;;;;4988850;28;20051;-68
2023/01/19 08:03:23;;;;;;;3.03;1.30;;;0.50;99.90;;;;;;4985454;28;20050;-61
2023/01/19 08:05:52;;;;;;;3.08;1.27;;;0.50;99.90;;;;;;4982124;28;20379;-62
2023/01/19 08:08:19;;;;;;;1.50;0.88;;;0.50;99.90;;;;;;4994694;28;20038;-65
2023/01/19 08:10:51;;;;;;;2.78;1.00;;;0.50;99.90;;;;;;5000704;28;20046;-67
2023/01/19 08:13:22;;;;;;;0.73;0.70;;;0.50;99.90;;;;;;4993978;28;20073;-64
2023/01/19 08:15:50;;;;;;;1.58;0.60;;;0.50;99.90;;;;;;4993383;28;20042;-65
2023/01/19 08:18:19;;;;;;;3.90;0.80;;;0.50;99.90;;;;;;4993361;28;20402;-63
2023/01/19 08:20:47;;;;;;;1.67;1.33;;;0.50;99.90;;;;;;4988389;28;20061;-63
2023/01/19 08:23:16;;;;;;;1.95;0.95;;;0.50;99.90;;;;;;4986287;28;20038;-65
2023/01/19 08:25:45;;;;;;;2.15;1.30;;;0.50;99.90;;;;;;4990835;28;20054;-61
2023/01/19 08:28:14;;;;;;;3.65;1.48;;;0.40;99.90;;;;;;4990013;28;20050;-63
2023/01/19 08:30:43;;;;;;;1.92;1.60;;;0.30;99.90;;;;;;4992830;28;20058;-65
2023/01/19 08:33:12;;;;;;;4.57;1.55;;;0.30;99.90;;;;;;4993620;28;20043;-60
2023/01/19 08:35:42;;;;;;;3.80;1.73;;;0.30;99.90;;;;;;4993481;28;20073;-60
2023/01/19 08:38:10;;;;;;;1.50;1.40;;;0.20;99.90;;;;;;4992687;28;20532;-62
2023/01/19 08:40:39;;;;;;;4.47;1.98;;;0.20;99.90;;;;;;4987221;28;20047;-60
2023/01/19 08:43:12;;;;;;;4.35;2.42;;;0.30;99.90;;;;;;4992758;28;20055;-63
2023/01/19 08:45:47;;;;;;;7.70;2.15;;;0.30;99.90;;;;;;4992651;28;20050;-63
2023/01/19 08:48:18;;;;;;;7.53;2.65;;;0.30;99.90;;;;;;4983375;28;20058;-62
2023/01/19 08:50:46;;;;;;;7.50;2.80;;;0.30;99.90;;;;;;4979305;28;20046;-61
2023/01/19 08:53:15;;;;;;;9.02;3.03;;;0.30;99.90;;;;;;4989759;28;20414;-61
2023/01/19 08:55:42;;;;;;;11.95;2.80;;;0.40;99.90;;;;;;4990935;28;20046;-61
2023/01/19 08:58:10;;;;;;;4.88;2.75;;;0.50;99.90;;;;;;4977326;28;20050;-66
2023/01/19 09:00:39;;;;;;;7.68;1.73;;;0.40;99.90;;;;;;4985393;28;20512;-63
2023/01/19 09:03:11;;;;;;;7.65;1.80;;;0.60;99.90;;;;;;4990995;28;20042;-62
2023/01/19 09:05:39;;;;;;;9.90;2.45;;;0.70;99.90;;;;;;4992074;28;20051;-65
2023/01/19 09:08:10;;;;;;;4.93;1.63;;;0.70;99.90;;;;;;4991104;28;20042;-67
2023/01/19 09:10:42;;;;;;;6.43;2.30;;;0.70;99.90;;;;;;4993267;28;20042;-65
2023/01/19 09:13:10;;;;;;;2.58;1.90;;;0.70;99.90;;;;;;4992655;28;20049;-67
2023/01/19 09:15:39;;;;;;;5.05;1.73;;;0.70;99.90;;;;;;4992723;28;20046;-66
2023/01/19 09:18:17;;;;;;;6.47;1.52;;;0.70;99.90;;;;;;4991565;28;20501;-64
2023/01/19 09:20:47;;;;;;;3.95;1.52;;;0.70;99.90;;;;;;4991965;28;20049;-62
2023/01/19 09:23:17;;;;;;;4.80;1.67;;;0.70;99.90;;;;;;4992072;28;20043;-60
2023/01/19 09:25:46;;;;;;;6.97;1.77;;;0.80;99.90;;;;;;4992259;28;20461;-63
2023/01/19 09:28:16;;;;;;;4.57;1.67;;;0.90;99.90;;;;;;4989033;28;20054;-60
2023/01/19 09:30:44;;;;;;;2.70;1.10;;;1.00;99.90;;;;;;4992542;28;20506;-60
2023/01/19 09:33:14;;;;;;;1.10;1.00;;;1.00;99.90;;;;;;4988702;28;20061;-60
2023/01/19 09:35:44;;;;;;;6.40;2.05;;;1.00;99.90;;;;;;4992454;28;20402;-65
2023/01/19 09:38:14;;;;;;;4.70;1.77;;;1.00;99.90;;;;;;4994415;28;20042;-65
2023/01/19 09:40:48;;;;;;;13.30;2.35;;;1.10;99.90;;;;;;4990783;28;20054;-67
2023/01/19 09:43:34;;;;;;;3.92;1.83;;;1.10;99.90;;;;;;4996851;28;20053;-60
2023/01/19 09:46:26;;;;;;;4.78;1.40;;;1.20;99.90;;;;;;4996454;28;20057;-59
2023/01/19 09:48:57;;;;;;;1.35;0.88;;;1.30;99.90;;;;;;4989359;28;20046;-61
2023/01/19 09:51:27;;;;;;;5.03;1.45;;;1.30;99.90;;;;;;4992055;28;20042;-64
2023/01/19 09:54:12;;;;;;;5.05;2.30;;;1.20;99.90;;;;;;4991915;28;20502;-60
2023/01/19 09:56:41;;;;;;;7.78;2.03;;;1.20;99.90;;;;;;5002321;28;20050;-61
2023/01/19 09:59:18;;;;;;;7.75;1.95;;;1.20;99.90;;;;;;4987913;28;20609;-67
2023/01/19 10:02:01;;;;;;;1.70;1.40;;;1.10;99.90;;;;;;4972658;28;20058;-61
2023/01/19 10:04:43;;;;;;;3.95;1.77;;;1.00;99.90;;;;;;4998705;28;20046;-62
2023/01/19 10:07:21;;;;;;;3.60;1.92;;;1.00;99.90;;;;;;4988994;28;20054;-61
2023/01/19 10:10:11;;;;;;;3.85;2.15;;;1.10;99.90;;;;;;4997228;28;20057;-62
2023/01/19 10:12:49;;;;;;;8.48;2.17;;;1.30;99.90;;;;;;4991563;28;20050;-60
2023/01/19 10:15:34;;;;;;;2.20;1.20;;;1.30;99.90;;;;;;5001747;28;20050;-63
2023/01/19 10:18:12;;;;;;;3.60;1.65;;;1.40;99.90;;;;;;4988835;28;20046;-63
2023/01/19 10:20:51;;;;;;;7.72;2.50;;;1.30;99.90;;;;;;4991759;28;20535;-65
2023/01/19 10:23:41;;;;;;;6.90;2.28;;;1.30;99.90;;;;;;4991375;28;20518;-67
2023/01/19 10:26:35;;;;;;;7.03;2.10;;;1.40;99.90;;;;;;4991226;28;20050;-65
2023/01/19 10:29:19;;;;;;;7.10;1.65;;;1.40;99.90;;;;;;4985801;28;20043;-61
2023/01/19 10:31:50;;;;;;;13.40;1.75;;;2.10;99.90;;;;;;4971934;28;20058;-65
2023/01/19 10:34:18;;;;;;;9.93;2.55;;;1.30;99.90;;;;;;4984213;28;20049;-64
2023/01/19 10:37:01;;;;;;;4.40;2.33;;;1.30;99.90;;;;;;5021702;28;20053;-65
2023/01/19 10:39:29;;;;;;;5.47;2.75;;;1.30;99.90;;;;;;5025929;28;20042;-64
2023/01/19 10:42:02;;;;;;;8.65;4.38;;;1.30;99.90;;;;;;4980968;28;20059;-65
2023/01/19 10:44:35;;;;;;;8.82;2.83;;;1.30;99.90;;;;;;4990019;28;20046;-59
2023/01/19 10:47:10;;;;;;;6.38;3.25;;;1.50;99.90;;;;;;4990287;28;20050;-62
2023/01/19 10:49:43;;;;;;;5.57;3.33;;;1.60;99.90;;;;;;4967487;28;20083;-62
2023/01/19 10:52:36;;;;;;;10.85;2.50;;;1.80;99.90;;;;;;4989617;28;20042;-62
2023/01/19 10:55:21;;;;;;;9.10;2.67;;;2.00;99.90;;;;;;4988296;28;20060;-63
2023/01/19 10:57:51;;;;;;;7.25;2.45;;;2.20;99.90;;;;;;5021295;28;20054;-64
2023/01/19 11:00:31;;;;;;;5.18;1.80;;;2.20;99.90;;;;;;5021960;28;20042;-66
2023/01/19 11:02:59;;;;;;;5.97;1.77;;;2.20;99.90;;;;;;4987056;28;20499;-63
2023/01/19 11:05:30;;;;;;;2.40;1.45;;;2.20;99.90;;;;;;4989594;28;20401;-63
2023/01/19 11:07:58;;;;;;;2.85;1.50;;;2.20;99.90;;;;;;4989987;28;20038;-60
2023/01/19 11:10:28;;;;;;;1.67;0.90;;;2.20;99.90;;;;;;4990901;28;20053;-60
2023/01/19 11:13:00;;;;;;;15.88;1.90;;;2.40;99.90;;;;;;5021560;28;20054;-61
2023/01/19 11:15:47;;;;;;;6.90;2.47;;;2.40;99.90;;;;;;4990869;28;20054;-60
2023/01/19 11:18:35;;;;;;;2.85;1.70;;;2.30;99.90;;;;;;4989067;28;20375;-61
2023/01/19 11:21:23;;;;;;;5.75;2.67;;;2.30;99.90;;;;;;4989799;28;20050;-58
2023/01/19 11:24:07;;;;;;;4.80;1.40;;;2.30;99.90;;;;;;4990851;28;20053;-60
2023/01/19 11:26:47;;;;;;;6.43;2.85;;;2.40;99.90;;;;;;4982989;28;20053;-59
2023/01/19 11:29:23;;;;;;;6.88;2.58;;;2.50;99.90;;;;;;4984259;28;20053;-58
2023/01/19 11:31:53;;;;;;;9.98;2.63;;;2.40;99.90;;;;;;4985763;28;20402;-61
2023/01/19 11:34:35;;;;;;;10.20;2.78;;;2.50;99.90;;;;;;4986856;28;20042;-61
2023/01/19 11:37:23;;;;;;;14.43;3.05;;;2.70;99.90;;;;;;4987709;28;20498;-59
2023/01/19 11:39:57;;;;;;;7.78;2.58;;;2.90;99.90;;;;;;4987513;28;20605;-60
2023/01/19 11:42:29;;;;;;;7.13;2.53;;;2.90;99.90;;;;;;4987139;28;20046;-60
2023/01/19 11:45:14;;;;;;;12.63;2.78;;;2.90;99.90;;;;;;4973839;28;20407;-60
2023/01/19 11:47:45;;;;;;;8.40;2.63;;;2.90;99.90;;;;;;4972171;28;20401;-61
2023/01/19 11:50:23;;;;;;;7.35;2.92;;;3.00;99.90;;;;;;4983127;28;20514;-60
2023/01/19 11:52:59;;;;;;;9.95;2.60;;;3.20;99.90;;;;;;4989351;28;20510;-60
2023/01/19 11:55:45;;;;;;;9.43;3.60;;;3.40;99.90;;;;;;4990049;28;20391;-62
2023/01/19 11:58:15;;;;;;;10.25;2.67;;;3.70;99.90;;;;;;4990041;28;20046;-61
2023/01/19 12:01:01;;;;;;;5.70;2.28;;;3.90;99.90;;;;;;4987324;28;20061;-59
2023/01/19 12:03:31;;;;;;;15.43;3.67;;;4.10;99.90;;;;;;4993655;28;20057;-59
2023/01/19 12:06:09;;;;;;;9.75;3.03;;;4.30;99.90;;;;;;5000700;28;20050;-61
2023/01/19 12:08:51;;;;;;;6.80;3.17;;;4.50;99.90;;;;;;4990483;28;20077;-67
2023/01/19 12:11:25;;;;;;;7.28;3.15;;;4.60;99.90;;;;;;4987988;28;20034;-66
2023/01/19 12:13:53;;;;;;;8.93;2.63;;;4.80;99.90;;;;;;4986183;28;20052;-67
2023/01/19 12:16:27;;;;;;;9.48;3.15;;;5.00;99.90;;;;;;4990006;28;20046;-66
2023/01/19 12:19:00;;;;;;;7.38;3.42;;;5.30;99.90;;;;;;4986437;28;20375;-66
2023/01/19 12:21:27;;;;;;;10.30;2.88;;;5.60;99.90;;;;;;4989113;28;20478;-65
2023/01/19 12:24:22;;;;;;;11.30;2.85;;;5.90;99.90;;;;;;4989661;28;20046;-60
2023/01/19 12:26:57;;;;;;;4.35;2.03;;;6.20;99.90;;;;;;4990066;28;20095;-60
2023/01/19 12:29:30;;;;;;;4.20;1.63;;;5.90;99.90;;;;;;4984867;28;20050;-60
2023/01/19 12:32:12;;;;;;;9.25;1.88;;;5.90;99.90;;;;;;4984334;28;20054;-59
2023/01/19 12:34:54;;;;;;;8.23;2.13;;;5.30;99.90;;;;;;4985309;28;20055;-61
2023/01/19 12:37:42;;;;;;;12.55;2.47;;;4.80;99.90;;;;;;4972772;28;20057;-61
2023/01/19 12:40:27;;;;;;;5.00;2.38;;;4.50;99.90;;;;;;4983485;28;20394;-60
2023/01/19 12:43:04;;;;;;;7.55;1.38;;;4.10;99.90;;;;;;4989437;28;20051;-62
2023/01/19 12:45:38;;;;;;;4.15;1.58;;;4.10;99.90;;;;;;4990280;28;20536;-60
2023/01/19 12:48:25;;;;;;;6.60;1.50;;;3.90;99.90;;;;;;4986358;28;20410;-61
2023/01/19 12:50:53;;;;;;;5.50;1.73;;;3.60;99.90;;;;;;4983238;28;20046;-61
2023/01/19 12:53:21;;;;;;;7.78;1.67;;;3.20;99.90;;;;;;5008402;28;20050;-62
2023/01/19 12:56:09;;;;;;;7.97;2.17;;;3.20;99.90;;;;;;4986682;28;20046;-60
2023/01/19 12:58:37;;;;;;;10.85;2.70;;;3.20;99.90;;;;;;4991427;28;20054;-66
2023/01/19 13:01:18;;;;;;;8.52;2.70;;;3.20;99.90;;;;;;4992988;28;20042;-67
2023/01/19 13:04:08;;;;;;;14.18;3.63;;;3.50;99.90;;;;;;4990458;28;20418;-65
2023/01/19 13:07:04;;;;;;;7.03;2.50;;;4.10;99.90;;;;;;4992301;28;20482;-65
2023/01/19 13:09:34;;;;;;;4.32;2.03;;;5.10;99.90;;;;;;4992784;28;20058;-64
2023/01/19 13:12:13;;;;;;;5.57;1.88;;;5.80;99.90;;;;;;4991968;28;20035;-63
2023/01/19 13:14:42;;;;;;;6.07;2.20;;;6.00;99.90;;;;;;5007396;28;20046;-60
2023/01/19 13:17:26;;;;;;;5.00;1.85;;;5.70;99.90;;;;;;4996342;28;20486;-60
2023/01/19 13:20:21;;;;;;;7.60;2.38;;;5.40;99.90;;;;;;4992927;28;20057;-60
2023/01/19 13:23:09;;;;;;;6.55;2.05;;;5.60;99.90;;;;;;4990041;28;20043;-59
2023/01/19 13:25:37;;;;;;;9.43;2.22;;;5.70;99.90;;;;;;5020880;28;20058;-58
2023/01/19 13:28:08;;;;;;;9.70;2.15;;;5.70;99.90;;;;;;4991700;28;20046;-59
2023/01/19 13:30:48;;;;;;;7.88;1.73;;;6.10;99.90;;;;;;4989560;28;20049;-59